Terminal Aerodrome Forecast
Issued by NWS

Home | Current Version | Previous Version | Text Only | Print | Product List | Glossary On
Versions: 1 2 3 4 5 6 7 8 9 10 11 12 13 14 15 16 17 18 19 20 21 22 23 24 25 26 27 28 29 30 31 32 33 34 35 36
231
FTUS43 KDVN 210526
TAFCID
TAF
KCID 210526Z 2106/2206 13005KT 1/2SM FG OVC002
      TEMPO 2106/2110 1/4SM -DZ FG OVC001
     FM211400 14006KT 1SM BR OVC002
     FM211600 16007KT 3SM BR OVC004
     FM212100 20008KT 5SM HZ BKN012
     FM220200 19004KT 2SM BR BKN003=

USA.gov is the U.S. government's official web portal to all federal, state and local government web resources and services.